Flight Track Log - Related Links

Times and Time Zones

All times are in EDT time to prevent confusion due to time zone crossing. See the NASA2 flight status page for this flight to view local times or setup timezone preferences in your user account.

Time Position Orientation Groundspeed Altitude Reporting Facility
EDT Latitude Longitude Course Direction KTS MPH feet Rate Location/Type
Sat 11:01:38 AM 45.7561 -111.1233 126° Southeast 238 274 5,100  Level Salt Lake Center
Sat 11:02:40 AM 45.6997 -111.0411 134° Southeast 241 277 7,600 2,177 Climbing Salt Lake Center
Sat 11:03:42 AM 45.6611 -110.9433 119° Southeast 274 315 9,600 1,984 Climbing Salt Lake Center
Sat 11:04:44 AM 45.6517 -110.8228 96° East 302 348 11,700 1,984 Climbing Salt Lake Center
Sat 11:05:00 AM 45.8308 -112.0591 296° West  Level FlightAware Approximate
Sat 11:05:46 AM 45.5853 -110.7394 139° Southeast 321 369 13,700  Level Salt Lake Center
Sat 11:06:00 AM 45.8270 -112.1206 126° Southeast  Level FlightAware Approximate
Sat 11:06:48 AM 45.5083 -110.6606 144° Southeast 338 389 16,100  Level Salt Lake Center
Sat 11:07:50 AM 45.4356 -110.5697 139° Southeast 345 397 17,900 2,081 Climbing Salt Lake Center
Sat 11:08:52 AM 45.3569 -110.4775 140° Southeast 360 414 20,400 2,323 Climbing Salt Lake Center
Sat 11:09:54 AM 45.2594 -110.3586 139° Southeast 378 435 22,700 2,032 Climbing Salt Lake Center
Sat 11:10:56 AM 45.1728 -110.2553 140° Southeast 397 457 24,600 1,790 Climbing Salt Lake Center
Sat 11:11:58 AM 45.0839 -110.1500 140° Southeast 410 472 26,400 1,790 Climbing Salt Lake Center
Sat 11:13:00 AM 44.9889 -110.0053 133° Southeast 445 512 28,300 1,935 Climbing Salt Lake Center
Sat 11:14:02 AM 44.9131 -109.8786 130° Southeast 443 510 30,400 1,790 Climbing Salt Lake Center
Sat 11:15:04 AM 44.8208 -109.7394 133° Southeast 437 503 32,000 1,548 Climbing Salt Lake Center
Sat 11:16:06 AM 44.7328 -109.6247 137° Southeast 433 498 33,600 1,548 Climbing Salt Lake Center
Sat 11:17:08 AM 44.6428 -109.5078 137° Southeast 438 504 35,200 1,355 Climbing Salt Lake Center
Sat 11:18:10 AM 44.5558 -109.3931 137° Southeast 433 498 36,400 1,065 Climbing Salt Lake Center
Sat 11:19:12 AM 44.4686 -109.2792 137° Southeast 431 496 37,400 871 Climbing Salt Lake Center
Sat 11:20:14 AM 44.3778 -109.1619 137° Southeast 442 509 38,200 774 Climbing Salt Lake Center
Sat 11:21:16 AM 44.2703 -109.0214 137° Southeast 443 510 39,000 387 Climbing Salt Lake Center
Sat 11:22:18 AM 44.1797 -108.9044 137° Southeast 446 513 39,000  Level Salt Lake Center
Sat 11:23:20 AM 44.0900 -108.7903 138° Southeast 441 507 39,000  Level Salt Lake Center
Sat 11:24:22 AM 43.9983 -108.6742 138° Southeast 445 512 39,000  Level Salt Lake Center
Sat 11:25:24 AM 43.9042 -108.5539 137° Southeast 459 528 39,000  Level Salt Lake Center
Sat 11:26:26 AM 43.7886 -108.4083 138° Southeast 469 540 39,000  Level Salt Lake Center
Sat 11:27:28 AM 43.6933 -108.2889 138° Southeast 466 536 39,000  Level Salt Lake Center
Sat 11:28:30 AM 43.5969 -108.1675 138° Southeast 471 542 39,000  Level Salt Lake Center
Sat 11:29:32 AM 43.4989 -108.0458 138° Southeast 475 547 39,000  Level Salt Lake Center
Sat 11:30:34 AM 43.4025 -107.9253 138° Southeast 473 544 39,000  Level Salt Lake Center
Sat 11:31:36 AM 43.3050 -107.8044 138° Southeast 473 544 39,000  Level Salt Lake Center
Sat 11:32:38 AM 43.1867 -107.6592 138° Southeast 477 549 39,000  Level Salt Lake Center
Sat 11:33:40 AM 43.0894 -107.5389 138° Southeast 475 547 39,000  Level Salt Lake Center
Sat 11:34:42 AM 42.9917 -107.4208 139° Southeast 472 543 39,000  Level Salt Lake Center
Sat 11:35:45 AM 42.8869 -107.2933 138° Southeast 475 547 39,000  Level Salt Lake Center
Sat 11:36:47 AM 42.7917 -107.1781 138° Southeast 477 549 39,000  Level Salt Lake Center
Sat 11:37:49 AM 42.6811 -107.0439 138° Southeast 479 551 39,000  Level Salt Lake Center
Sat 11:38:51 AM 42.5819 -106.9275 139° Southeast 475 547 39,000  Level Salt Lake Center
Sat 11:39:53 AM 42.4711 -106.7931 138° Southeast 479 551 39,000  Level Salt Lake Center
Sat 11:40:55 AM 42.3753 -106.6806 139° Southeast 477 549 39,000  Level Salt Lake Center
Sat 11:41:57 AM 42.2625 -106.5478 139° Southeast 480 552 39,000  Level Salt Lake Center
Sat 11:42:59 AM 42.1656 -106.4350 139° Southeast 481 554 39,000  Level Salt Lake Center
Sat 11:44:01 AM 42.0697 -106.3231 139° Southeast 478 550 39,000  Level Salt Lake Center
Sat 11:45:03 AM 41.9583 -106.1925 139° Southeast 477 549 39,000  Level Salt Lake Center
Sat 11:46:05 AM 41.8614 -106.0800 139° Southeast 480 552 39,000  Level Salt Lake Center
Sat 11:47:23 AM 41.7156 -105.9119 139° Southeast 485 558 39,000  Level Denver Center
Sat 11:48:25 AM 41.6200 -105.8019 139° Southeast 480 552 39,000  Level Denver Center
Sat 11:49:27 AM 41.5067 -105.6725 139° Southeast 481 554 39,000  Level Denver Center
Sat 11:50:29 AM 41.4097 -105.5622 140° Southeast 481 554 39,000  Level Denver Center
Sat 11:51:31 AM 41.2961 -105.4344 140° Southeast 480 552 39,000  Level Denver Center
Sat 11:52:33 AM 41.1978 -105.3214 139° Southeast 486 559 39,000  Level Denver Center
Sat 11:53:35 AM 41.0839 -105.1967 140° Southeast 481 554 39,000  Level Denver Center
Sat 11:54:37 AM 41.0017 -105.1036 139° Southeast 486 559 39,000  Level Denver Center
Sat 11:55:40 AM 40.8867 -104.9722 139° Southeast 487 560 39,000  Level Denver Center
Sat 11:56:41 AM 40.8022 -104.8789 140° Southeast 492 566 39,000  Level Denver Center
Sat 11:57:44 AM 40.6567 -104.7192 140° Southeast 486 559 39,000  Level Denver Center
Sat 11:58:46 AM 40.5525 -104.6056 140° Southeast 485 558 39,000  Level Denver Center
Sat 11:59:47 AM 40.4692 -104.5189 142° Southeast 481 554 39,000  Level Denver Center
Sat 12:00:50 PM 40.3364 -104.4128 149° Southeast 466 536 39,000  Level Denver Center
Sat 12:01:52 PM 40.2264 -104.3181 147° Southeast 470 541 39,000  Level Denver Center
Sat 12:02:54 PM 40.1164 -104.2264 147° Southeast 467 537 39,000  Level Denver Center
Sat 12:03:56 PM 40.0044 -104.1333 148° Southeast 472 543 39,000  Level Denver Center
Sat 12:04:58 PM 39.8706 -104.0242 148° Southeast 470 541 39,000  Level Denver Center
Sat 12:06:00 PM 39.7806 -103.9494 147° Southeast 475 547 39,000  Level Denver Center
Sat 12:07:02 PM 39.6464 -103.8408 148° Southeast 469 540 39,000  Level Denver Center
Sat 12:08:04 PM 39.5319 -103.7500 149° Southeast 474 545 39,000  Level Denver Center
Sat 12:09:06 PM 39.4222 -103.6617 148° Southeast 467 537 39,000  Level Denver Center
Sat 12:10:08 PM 39.3114 -103.5700 147° Southeast 469 540 39,000  Level Denver Center
Sat 12:11:10 PM 39.2000 -103.4803 148° Southeast 470 541 39,000  Level Denver Center
Sat 12:12:13 PM 39.0658 -103.3731 148° Southeast 472 543 39,000  Level Denver Center
Sat 12:13:15 PM 38.9542 -103.2836 148° Southeast 472 543 39,000  Level Denver Center
Sat 12:14:17 PM 38.8425 -103.1947 148° Southeast 474 545 39,000  Level Denver Center
Sat 12:15:19 PM 38.7314 -103.1064 148° Southeast 471 542 39,000  Level Denver Center
Sat 12:16:21 PM 38.6200 -103.0181 148° Southeast 471 542 39,000  Level Denver Center
Sat 12:17:23 PM 38.4911 -102.9169 148° Southeast 470 541 39,000  Level Denver Center
Sat 12:18:25 PM 38.3836 -102.8339 149° Southeast 471 542 39,000  Level Denver Center
Sat 12:19:27 PM 38.2594 -102.7356 148° Southeast 472 543 39,000  Level Denver Center
Sat 12:20:41 PM 38.1558 -102.6461 146° Southeast 472 543 39,000  Level Denver Center
Sat 12:21:44 PM 38.0261 -102.5078 140° Southeast 476 548 39,000  Level Denver Center
Sat 12:22:46 PM 37.9267 -102.4069 141° Southeast 478 550 39,000  Level Denver Center
Sat 12:23:44 PM 37.8111 -102.2894 141° Southeast 478 550 39,000  Level Kansas City Center
Sat 12:24:46 PM 37.7128 -102.1878 141° Southeast 479 551 39,000  Level Kansas City Center
Sat 12:25:48 PM 37.5986 -102.0708 141° Southeast 476 548 39,000  Level Kansas City Center
Sat 12:26:50 PM 37.5000 -101.9689 141° Southeast 479 551 39,000  Level Kansas City Center
Sat 12:27:52 PM 37.3847 -101.8533 141° Southeast 477 549 39,000  Level Kansas City Center
Sat 12:28:54 PM 37.2869 -101.7542 141° Southeast 476 548 39,000  Level Kansas City Center
Sat 12:29:56 PM 37.1900 -101.6567 141° Southeast 471 542 39,000  Level Kansas City Center
Sat 12:30:58 PM 37.0769 -101.5419 141° Southeast 470 541 39,000  Level Kansas City Center
Sat 12:32:00 PM 36.9794 -101.4439 141° Southeast 472 543 39,000  Level Kansas City Center
Sat 12:33:02 PM 36.8667 -101.3308 141° Southeast 469 540 39,000  Level Kansas City Center
Sat 12:34:04 PM 36.7686 -101.2339 142° Southeast 470 541 39,000  Level Kansas City Center
Sat 12:35:06 PM 36.6553 -101.1203 141° Southeast 469 540 39,000  Level Kansas City Center
Sat 12:36:08 PM 36.5583 -101.0242 141° Southeast 468 539 39,000  Level Kansas City Center
Sat 12:37:10 PM 36.4439 -100.9125 142° Southeast 468 539 39,000  Level Kansas City Center
Sat 12:38:12 PM 36.3403 -100.8106 142° Southeast 466 536 39,000  Level Kansas City Center
Sat 12:39:14 PM 36.2378 -100.7106 142° Southeast 467 537 39,000  Level Kansas City Center
Sat 12:40:16 PM 36.1267 -100.6025 142° Southeast 461 531 39,000  Level Kansas City Center
Sat 12:41:18 PM 36.0247 -100.5036 142° Southeast 462 532 39,000  Level Kansas City Center
Sat 12:42:20 PM 35.9239 -100.4067 142° Southeast 462 532 39,000  Level Kansas City Center
Sat 12:43:22 PM 35.8233 -100.3097 142° Southeast 460 529 39,000  Level Kansas City Center
Sat 12:44:24 PM 35.7228 -100.2125 142° Southeast 460 529 39,000  Level Kansas City Center
Sat 12:45:26 PM 35.6214 -100.1158 142° Southeast 462 532 39,000  Level Kansas City Center
Sat 12:46:28 PM 35.5000 -100.0003 142° Southeast 461 531 39,000  Level Kansas City Center
Sat 12:47:30 PM 35.3994 -99.9053 142° Southeast 459 528 39,000  Level Kansas City Center
Sat 12:48:34 PM 35.2997 -99.8097 142° Southeast 471 542 39,000  Level Fort Worth Center
Sat 12:49:34 PM 35.1972 -99.7153 143° Southeast 466 536 39,000  Level Fort Worth Center
Sat 12:50:34 PM 35.0967 -99.6211 143° Southeast 466 536 39,000  Level Fort Worth Center
Sat 12:51:34 PM 34.9983 -99.5247 141° Southeast 461 531 39,000  Level Fort Worth Center
Sat 12:52:34 PM 34.8978 -99.4311 143° Southeast 461 531 39,000  Level Fort Worth Center
Sat 12:53:34 PM 34.7950 -99.3353 143° Southeast 456 525 39,000  Level Fort Worth Center
Sat 12:54:34 PM 34.6942 -99.2419 143° Southeast 461 531 39,000  Level Fort Worth Center
Sat 12:55:34 PM 34.5931 -99.1467 142° Southeast 461 531 39,000  Level Fort Worth Center
Sat 12:56:34 PM 34.4922 -99.0614 145° Southeast 456 525 39,000  Level Fort Worth Center
Sat 12:57:34 PM 34.3911 -98.9689 143° Southeast 451 519 39,000  Level Fort Worth Center
Sat 12:58:34 PM 34.2900 -98.8764 143° Southeast 456 525 39,000  Level Fort Worth Center
Sat 12:59:34 PM 34.1908 -98.7869 143° Southeast 456 525 39,000  Level Fort Worth Center
Sat 01:00:34 PM 34.0917 -98.6900 141° Southeast 456 525 39,000  Level Fort Worth Center
Sat 01:01:34 PM 33.9797 -98.6183 152° Southeast 456 525 39,000  Level Fort Worth Center
Sat 01:02:34 PM 33.8761 -98.5342 146° Southeast 456 525 39,000  Level Fort Worth Center
Sat 01:03:34 PM 33.7703 -98.4531 147° Southeast 451 519 39,000  Level Fort Worth Center
Sat 01:04:34 PM 33.6667 -98.3694 146° Southeast 451 519 39,000  Level Fort Worth Center
Sat 01:06:00 PM 33.5283 -98.2485 144° Southeast  Level FlightAware Approximate
Sat 01:07:34 PM 33.3533 -98.1172 144° Southeast 453 521 39,000  Level Fort Worth Center
Sat 01:08:34 PM 33.2492 -98.0369 147° Southeast 448 516 39,000  Level Fort Worth Center
Sat 01:09:34 PM 33.1411 -97.9517 147° Southeast 453 521 39,000 -300 Level Fort Worth Center
Sat 01:10:34 PM 33.0350 -97.8694 147° Southeast 453 521 38,400 -1,150 Descending Fort Worth Center
Sat 01:11:34 PM 32.9308 -97.7872 146° Southeast 459 528 36,700 -1,850 Descending Fort Worth Center
Sat 01:12:34 PM 32.8308 -97.7075 146° Southeast 448 516 34,700 -1,900 Descending Fort Worth Center
Sat 01:13:34 PM 32.7289 -97.6283 147° Southeast 443 510 32,900 -2,100 Descending Fort Worth Center
Sat 01:14:34 PM 32.6203 -97.5442 147° Southeast 452 520 30,500 -2,450 Descending Fort Worth Center
Sat 01:15:34 PM 32.5139 -97.4628 147° Southeast 458 527 28,000 -2,450 Descending Fort Worth Center
Sat 01:16:34 PM 32.4117 -97.3814 146° Southeast 453 521 25,600 -2,000 Descending Fort Worth Center
Sat 01:17:34 PM 32.3050 -97.2978 146° Southeast 453 521 24,000 -800 Descending Fort Worth Center
Sat 01:18:34 PM 32.2028 -97.2169 146° Southeast 453 521 24,000  Level Fort Worth Center
Sat 01:19:34 PM 32.0983 -97.1411 148° Southeast 453 521 24,000  Level Fort Worth Center
Sat 01:20:34 PM 31.9936 -97.0631 148° Southeast 453 521 24,000  Level Fort Worth Center
Sat 01:21:34 PM 31.8911 -96.9753 144° Southeast 453 521 24,000  Level Fort Worth Center
Sat 01:22:34 PM 31.7883 -96.8953 147° Southeast 460 529 24,000  Level Fort Worth Center
Sat 01:23:42 PM 31.6517 -96.8275 157° South 458 527 24,000  Level Houston Center
Sat 01:24:44 PM 31.5244 -96.8089 173° South 455 524 24,000  Level Houston Center
Sat 01:25:46 PM 31.3981 -96.7889 172° South 452 520 24,000  Level Houston Center
Sat 01:26:48 PM 31.2711 -96.7667 171° South 454 522 24,000  Level Houston Center
Sat 01:27:50 PM 31.1431 -96.7461 172° South 457 526 24,000  Level Houston Center
Sat 01:28:51 PM 31.0156 -96.7278 173° South 454 522 24,000  Level Houston Center
Sat 01:29:53 PM 30.8886 -96.7056 171° South 453 521 24,000  Level Houston Center
Sat 01:30:55 PM 30.7611 -96.6858 172° South 454 522 24,000 -435 Level Houston Center
Sat 01:31:57 PM 30.6122 -96.6622 172° South 456 525 23,100 -1,548 Descending Houston Center
Sat 01:32:59 PM 30.5136 -96.5761 143° Southeast 442 509 20,800 -2,129 Descending Houston Center
Sat 01:34:01 PM 30.4353 -96.4792 133° Southeast 411 473 18,700 -1,839 Descending Houston Center
Sat 01:35:03 PM 30.3647 -96.3967 135° Southeast 362 417 17,000 -2,000 Descending Houston Center
Sat 01:35:40 PM 30.3250 -96.3519 136° Southeast 331 381 15,400 -2,283 Descending Houston Center
Sat 01:36:35 PM 30.2664 -96.2786 133° Southeast 307 353 13,500 -1,931 Descending Houston Center
Sat 01:37:07 PM 30.2411 -96.2497 135° Southeast 311 358 12,600 -1,970 Descending Houston Center
Sat 01:37:42 PM 30.2081 -96.2103 134° Southeast 259 298 11,300 -1,067 Descending Houston Center
Sat 01:38:37 PM 30.1442 -96.1739 154° Southeast 286 329 11,000 -202 Descending Houston Center
Sat 01:39:11 PM 30.1111 -96.1550 154° Southeast 287 330 11,000  Level Houston Center
Sat 01:39:44 PM 30.0586 -96.1281 156° South 296 341 11,000  Level Houston Center
Sat 01:40:51 PM 29.9750 -96.0844 156° South 297 342 11,000  Level Houston Center
Sat 01:41:41 PM 29.9133 -96.0506 155° Southeast 303 349 11,000  Level Houston Center
Sat 01:42:16 PM 29.8692 -96.0261 154° Southeast 303 349 11,000  Level Houston Center
Sat 01:42:48 PM 29.8275 -96.0050 156° South 299 344 11,000  Level Houston Center
Sat 01:43:18 PM 29.7922 -95.9883 158° South 300 345 11,000  Level Houston Center
Sat 01:43:49 PM 29.7506 -95.9633 152° Southeast 297 342 11,000  Level Houston Center
Sat 01:44:20 PM 29.7283 -95.9314 129° Southeast 302 348 11,000  Level Houston Center
Sat 01:45:22 PM 29.6764 -95.8583 129° Southeast 298 343 11,000  Level Houston Center
Sat 01:46:24 PM 29.6356 -95.7786 120° Southeast 295 339 11,000  Level Houston Center
Sat 01:47:26 PM 29.6100 -95.6894 108° East 296 341 11,000  Level Houston Center
Sat 01:48:28 PM 29.5797 -95.5892 109° East 280 322 11,000  Level Houston Center
Sat 01:49:30 PM 29.5533 -95.5192 113° Southeast 245 282 11,000  Level Houston Center
Sat 01:50:32 PM 29.5206 -95.4444 117° Southeast 257 296 11,000  Level Houston Center
Sat 01:51:33 PM 29.4883 -95.3733 117° Southeast 255 293 11,000  Level Houston Center
Sat 01:52:35 PM 29.4594 -95.3050 116° Southeast 242 278 11,000 -194 Level Houston Center
Sat 01:53:37 PM 29.4219 -95.2169 116° Southeast 258 297 10,600 -1,113 Descending Houston Center
Sat 01:54:39 PM 29.3847 -95.1386 119° Southeast 280 322 8,700 -1,887 Descending Houston Center
Sat 01:55:41 PM 29.4197 -95.0622 62° Northeast 289 333 6,700 -1,935 Descending Houston Center
Sat 01:56:43 PM 29.4764 -95.0097 39° Northeast 267 307 4,700 -1,790 Descending Houston Center
Sat 01:57:45 PM 29.5342 -94.9578 38° Northeast 266 306 3,000 -785 Descending Houston Center
Sat 01:58:53 PM 29.6106 -94.9772 348° North 206 237 3,000 -194 Level Houston Center
Sat 01:59:49 PM 29.6486 -95.0000 333° Northwest 210 242 2,600 -559 Descending Houston Center
Sat 02:00:51 PM 29.6919 -95.0289 330° Northwest 192 221 1,900 -290 Descending Houston Center
Sat 02:01:53 PM 29.6789 -95.0722 251° West 165 190 2,000 -532 Climbing Houston Center
Sat 02:02:55 PM 29.6492 -95.1069 225° Southwest 157 181 800 -829 Descending Houston Center
Sat 02:03:56 PM 29.6200 -95.1386 223° Southwest 150 173 300 -492 Descending Houston Center

Login

Don't have an account? Register now (free) for customized features, flight alerts, and more!